Details From KSTS - Charles M. Schulz - Sonoma Co
To KRDD - Redding Muni
Flight Number -
Tags decoded
Created
Modified
Stats Distance 122 nm / 227 km
Max Altitude 0 ft / 0 m
Waypoints 2
Social Downloads 0
Likes 0
Share VATSIM

Download

Looking for another format? Having issues loading an existing format? Contact us
Advertisement - Login to hide

Notes

Requested: KSTS KRDD

Route

KSTS KRDD

ID Type Via Altitude Latitude Longitude Leg Dist Tot Dist Heading (true) Name
O KSTS APT - 0 ft / 0 m 38.50898˚ -122.81292˚ - 0 nm - Charles M. Schulz - Sonoma Co
O KRDD APT - 0 ft / 0 m 40.50865˚ -122.29310˚ 122 nm 122 nm 11° / 12° Redding Muni

Altitude Profile

Advertisement - Login to hide

KSTS

Details ICAO KSTS (STS)
Name Charles M. Schulz - Sonoma Co
Region United States
Timezone America/Los_Angeles (UTC-8.0)
Stats Elevation 128 ft / 39 m (AMSL)
Location 38.508979° -122.812922°
Runways 2
Magnetic Variation 13.724° E

METAR

KSTS 151553Z 00000KT 6SM BR SCT120 BKN200 01/01 A3017 RMK AO2 SLP212 T00110011

Decode

TAF

KSTS 151514Z 1515/1612 VRB04KT P6SM FEW003 BKN200 FM160200 34008KT P6SM SCT100 BKN180 FM160500 35013G20KT P6SM FEW100 SCT180 FM161000 35011G17KT P6SM FEW250

Decode

Departure Runways

ID Width Length Bearing (true) Bearing (mag) Surface Threshold Offset Overrun Length
01 98 ft / 30 m 5,008 ft / 1,527 m 29.05° 15.33° Asphalt 0 ft / 0 m 0 ft / 0 m
14 151 ft / 46 m 5,122 ft / 1,561 m 157.28° 143.56° Asphalt 0 ft / 0 m 200 ft / 61 m
19 98 ft / 30 m 5,008 ft / 1,527 m 209.05° 195.33° Asphalt 0 ft / 0 m 0 ft / 0 m
32 151 ft / 46 m 5,122 ft / 1,561 m 337.28° 323.56° Asphalt 0 ft / 0 m 200 ft / 61 m

KRDD

Details ICAO KRDD (RDD)
Name Redding Muni
Region United States
Timezone America/Los_Angeles (UTC-8.0)
Stats Elevation 502 ft / 153 m (AMSL)
Location 40.508653° -122.293102°
Runways 2
Magnetic Variation 14.085° E

METAR

KRDD 151553Z 00000KT 8SM CLR 03/02 A3018 RMK AO2 SLP220 T00330017

Decode

TAF

KRDD 151122Z 1512/1612 VRB03KT P6SM BKN200 FM160400 36008KT P6SM BKN200

Decode

Destination Runways

ID Width Length Bearing (true) Bearing (mag) Surface Threshold Offset Overrun Length
12 150 ft / 46 m 5,067 ft / 1,545 m 140.20° 126.11° Asphalt 0 ft / 0 m 0 ft / 0 m
16 150 ft / 46 m 7,015 ft / 2,138 m 180.07° 165.98° Asphalt 0 ft / 0 m 0 ft / 0 m
30 150 ft / 46 m 5,067 ft / 1,545 m 320.21° 306.12° Asphalt 498 ft / 152 m 0 ft / 0 m
34 150 ft / 46 m 7,015 ft / 2,138 m 0.07° 345.98° Asphalt 0 ft / 0 m 0 ft / 0 m

Approach Navaids

Runway Type Ident Frequency Range Bearing (true) Bearing (mag) Slope Elevation
34 Localiser IRDD 108.70 MHz 18 nm / 33 km 0.07° 345.99° - 508 ft / 155 m (AMSL)
34 Glidescope IRDD 108.70 MHz 10 nm / 19 km 0.07° 345.99° 3.00° 490 ft / 149 m (AMSL)

Popular Alternatives